Time;durP1;ratioP1;P1;durP2;ratioP2;P2;SDS_P1;SDS_P2;PMS_P1;PMS_P2;Temp;Humidity;BMP_temperature;BMP_pressure;BME280_temperature;BME280_humidity;BME280_pressure;Samples;Min_cycle;Max_cycle;Signal;HPM_P1;HPM_P2
2022/03/19 00:00:47;;;;;;;2.25;0.65;;;17.30;42.60;;;;;;5113065;28;20115;-76
2022/03/19 00:03:12;;;;;;;2.28;0.75;;;17.20;42.60;;;;;;5095201;28;20130;-77
2022/03/19 00:05:38;;;;;;;2.17;0.50;;;17.20;42.50;;;;;;5095322;28;20036;-76
2022/03/19 00:08:04;;;;;;;4.88;0.55;;;17.30;42.60;;;;;;5094983;28;20032;-76
2022/03/19 00:10:31;;;;;;;3.80;0.50;;;17.20;42.60;;;;;;5094966;28;20043;-77
2022/03/19 00:12:58;;;;;;;4.10;0.90;;;17.20;42.50;;;;;;5094950;28;20491;-76
2022/03/19 00:15:24;;;;;;;2.55;0.60;;;17.20;42.50;;;;;;5095086;28;20043;-76
2022/03/19 00:17:52;;;;;;;3.92;1.13;;;17.10;42.40;;;;;;5113505;28;20156;-76
2022/03/19 00:20:18;;;;;;;2.80;0.93;;;17.10;42.40;;;;;;5094684;28;20108;-76
2022/03/19 00:22:44;;;;;;;2.58;0.60;;;17.10;42.40;;;;;;5113476;28;20079;-77
2022/03/19 00:25:12;;;;;;;4.25;0.70;;;17.10;42.30;;;;;;5094656;28;20031;-77
2022/03/19 00:27:40;;;;;;;3.60;0.63;;;17.10;42.30;;;;;;5111991;28;20039;-76
2022/03/19 00:30:06;;;;;;;2.90;0.68;;;17.10;42.30;;;;;;5094382;28;20123;-76
2022/03/19 00:32:31;;;;;;;4.15;0.98;;;17.10;42.30;;;;;;5094944;28;20071;-76
2022/03/19 00:34:57;;;;;;;2.33;0.40;;;17.00;42.20;;;;;;5094888;28;20443;-76
2022/03/19 00:37:23;;;;;;;1.88;0.60;;;17.00;42.20;;;;;;5094584;28;20114;-76
2022/03/19 00:39:49;;;;;;;3.75;0.73;;;17.00;42.20;;;;;;5093986;28;20046;-76
2022/03/19 00:42:15;;;;;;;4.30;0.80;;;17.00;42.10;;;;;;5095048;28;20031;-76
2022/03/19 00:44:42;;;;;;;3.20;0.60;;;17.00;42.10;;;;;;5112476;28;20684;-76
2022/03/19 00:47:08;;;;;;;2.47;0.45;;;17.00;42.10;;;;;;5112452;28;20036;-77
2022/03/19 00:49:33;;;;;;;3.67;0.93;;;17.00;42.10;;;;;;5094593;28;20356;-76
2022/03/19 00:51:59;;;;;;;4.20;0.88;;;17.00;42.10;;;;;;5094208;28;20054;-77
2022/03/19 00:54:25;;;;;;;3.83;0.70;;;17.00;42.10;;;;;;5093636;28;20044;-76
2022/03/19 00:56:50;;;;;;;3.70;0.95;;;16.90;42.00;;;;;;5111012;28;20571;-76
2022/03/19 00:59:25;;;;;;;2.33;0.40;;;16.90;42.00;;;;;;5111985;28;20039;-76
2022/03/19 01:01:50;;;;;;;3.00;0.70;;;16.90;42.00;;;;;;5093976;28;20039;-76
2022/03/19 01:04:16;;;;;;;4.47;0.85;;;16.90;42.00;;;;;;5093921;28;20039;-76
2022/03/19 01:06:42;;;;;;;3.63;0.77;;;16.90;42.00;;;;;;5093363;28;20499;-76
2022/03/19 01:09:07;;;;;;;3.58;1.10;;;16.90;41.90;;;;;;5093532;28;20046;-77
2022/03/19 01:11:33;;;;;;;3.47;0.60;;;16.80;42.60;;;;;;5093427;28;20047;-77
2022/03/19 01:13:59;;;;;;;5.00;1.90;;;16.80;41.90;;;;;;5093926;28;20028;-76
2022/03/19 01:16:26;;;;;;;1.95;0.57;;;16.80;41.80;;;;;;5093557;28;20399;-76
2022/03/19 01:18:51;;;;;;;2.30;0.60;;;16.80;41.90;;;;;;5093448;28;20075;-76
2022/03/19 01:21:21;;;;;;;4.07;1.45;;;16.80;41.90;;;;;;5093551;28;20443;-76
2022/03/19 01:23:46;;;;;;;4.93;0.80;;;16.80;41.90;;;;;;5093987;28;20131;-76
2022/03/19 01:26:12;;;;;;;1.95;0.63;;;16.80;41.90;;;;;;5093219;28;20487;-76
2022/03/19 01:28:38;;;;;;;5.13;0.75;;;16.70;41.80;;;;;;5093641;28;20031;-76
2022/03/19 01:31:04;;;;;;;2.05;0.40;;;16.80;41.80;;;;;;5093455;28;20039;-76
2022/03/19 01:33:32;;;;;;;2.05;0.63;;;16.70;41.80;;;;;;5112168;28;20093;-76
2022/03/19 01:35:58;;;;;;;3.75;0.70;;;16.80;41.80;;;;;;5093940;28;20410;-77
2022/03/19 01:38:24;;;;;;;4.75;0.93;;;16.60;41.70;;;;;;5093544;28;20043;-76
2022/03/19 01:40:49;;;;;;;2.30;0.50;;;16.60;41.70;;;;;;5093577;28;20070;-76
2022/03/19 01:43:15;;;;;;;2.45;0.47;;;16.60;41.70;;;;;;5112152;28;20471;-76
2022/03/19 01:45:41;;;;;;;2.67;0.90;;;16.60;41.70;;;;;;5111411;28;20056;-76
2022/03/19 01:48:06;;;;;;;3.35;0.55;;;16.60;41.70;;;;;;5093264;28;20039;-76
2022/03/19 01:50:32;;;;;;;3.58;0.70;;;16.60;41.60;;;;;;5093150;28;20054;-76
2022/03/19 01:52:58;;;;;;;2.08;0.47;;;16.60;41.60;;;;;;5093580;28;20114;-76
2022/03/19 01:55:26;;;;;;;2.78;0.70;;;16.60;41.60;;;;;;5093800;28;20045;-76
2022/03/19 01:57:52;;;;;;;3.50;0.70;;;16.60;41.60;;;;;;5093440;28;20043;-76
2022/03/19 02:00:22;;;;;;;2.95;0.70;;;16.60;41.60;;;;;;5093350;28;20471;-76
2022/03/19 02:02:49;;;;;;;5.00;0.45;;;16.50;41.60;;;;;;5093576;28;20084;-76
2022/03/19 02:05:21;;;;;;;4.47;0.52;;;16.50;41.50;;;;;;5093816;28;20040;-76
2022/03/19 02:07:48;;;;;;;4.03;0.60;;;16.50;41.50;;;;;;5093032;28;20036;-76
2022/03/19 02:10:15;;;;;;;5.40;1.00;;;16.50;41.50;;;;;;5093317;28;20048;-76
2022/03/19 02:12:42;;;;;;;2.38;0.50;;;16.50;41.50;;;;;;5093430;28;20043;-76
2022/03/19 02:15:09;;;;;;;2.60;0.70;;;16.50;41.50;;;;;;5111645;28;20043;-76
2022/03/19 02:17:35;;;;;;;3.85;1.05;;;16.40;41.40;;;;;;5093639;28;20032;-76
2022/03/19 02:20:02;;;;;;;4.13;0.70;;;16.50;41.50;;;;;;5111258;28;20566;-76
2022/03/19 02:22:31;;;;;;;3.83;0.55;;;16.40;41.40;;;;;;5093391;28;20075;-76
2022/03/19 02:27:43;;;;;;;3.40;1.13;;;16.40;41.40;;;;;;5110969;28;20056;-76
2022/03/19 02:30:16;;;;;;;2.65;0.60;;;16.40;41.50;;;;;;5093081;28;20119;-76
2022/03/19 02:32:47;;;;;;;2.55;0.70;;;16.40;41.40;;;;;;5093180;28;20112;-76
2022/03/19 02:35:13;;;;;;;4.38;0.68;;;16.30;41.40;;;;;;5093322;28;20475;-76
2022/03/19 02:37:43;;;;;;;2.08;0.60;;;16.30;41.40;;;;;;5111292;28;20038;-76
2022/03/19 02:40:10;;;;;;;2.90;0.60;;;16.30;41.30;;;;;;5092934;28;20119;-76
2022/03/19 02:42:36;;;;;;;3.67;0.63;;;16.30;42.10;;;;;;5093140;28;20085;-76
2022/03/19 02:45:03;;;;;;;3.33;0.52;;;16.30;41.30;;;;;;5111036;28;20047;-76
2022/03/19 02:47:29;;;;;;;2.70;0.75;;;16.30;41.40;;;;;;5093188;28;20032;-76
2022/03/19 02:49:55;;;;;;;4.65;1.00;;;16.20;41.30;;;;;;5111015;28;20614;-76
2022/03/19 02:52:23;;;;;;;1.90;0.43;;;16.20;41.30;;;;;;5096443;28;20050;-76
2022/03/19 02:54:49;;;;;;;2.10;0.70;;;16.20;41.30;;;;;;5097049;28;20047;-76
2022/03/19 02:57:14;;;;;;;4.80;0.90;;;16.20;41.20;;;;;;5096640;28;20259;-76
2022/03/19 02:59:40;;;;;;;3.42;0.65;;;16.20;41.20;;;;;;5096596;28;20040;-76
2022/03/19 03:02:07;;;;;;;3.65;0.88;;;16.20;41.20;;;;;;5096173;28;20039;-76
2022/03/19 03:04:33;;;;;;;2.55;0.52;;;16.20;41.20;;;;;;5096291;28;20092;-76
2022/03/19 03:07:02;;;;;;;4.22;0.70;;;16.20;41.30;;;;;;5096012;28;20096;-76
2022/03/19 03:09:30;;;;;;;2.65;0.47;;;16.10;41.20;;;;;;5113912;28;20035;-76
2022/03/19 03:11:58;;;;;;;2.10;0.60;;;16.10;41.20;;;;;;5095539;28;20046;-77
2022/03/19 03:14:23;;;;;;;3.50;0.75;;;16.10;41.20;;;;;;5096062;28;20484;-76
2022/03/19 03:16:52;;;;;;;5.10;0.70;;;16.10;41.20;;;;;;5096341;28;20083;-75
2022/03/19 03:19:19;;;;;;;5.15;1.10;;;16.10;41.20;;;;;;5095804;28;20042;-76
2022/03/19 03:21:46;;;;;;;2.90;1.20;;;16.00;41.20;;;;;;5095528;28;20035;-76
2022/03/19 03:24:13;;;;;;;3.40;0.65;;;16.10;41.20;;;;;;5095823;28;20047;-76
2022/03/19 03:26:40;;;;;;;2.75;0.85;;;16.00;41.10;;;;;;5095959;28;20043;-76
2022/03/19 03:29:05;;;;;;;2.47;0.70;;;16.00;41.10;;;;;;5095576;28;20455;-76
2022/03/19 03:31:33;;;;;;;3.47;0.80;;;16.00;41.10;;;;;;5095257;28;20127;-76
2022/03/19 03:33:59;;;;;;;3.80;0.88;;;16.00;41.20;;;;;;5096241;28;20065;-76
2022/03/19 03:36:25;;;;;;;3.28;0.50;;;16.00;41.20;;;;;;5096352;28;20097;-76
2022/03/19 03:38:50;;;;;;;3.22;0.60;;;16.00;41.20;;;;;;5095989;28;20475;-76
2022/03/19 03:41:16;;;;;;;2.55;0.50;;;16.00;41.20;;;;;;5114265;28;20430;-77
2022/03/19 03:43:42;;;;;;;6.07;1.00;;;16.00;41.20;;;;;;5095515;28;20044;-75
2022/03/19 03:46:08;;;;;;;4.32;1.30;;;16.00;41.20;;;;;;5095468;28;20044;-76
2022/03/19 03:48:36;;;;;;;3.13;0.80;;;15.90;41.20;;;;;;5095117;28;20054;-76
2022/03/19 03:51:03;;;;;;;3.80;0.85;;;15.90;41.20;;;;;;5113652;28;20100;-76
2022/03/19 03:53:29;;;;;;;5.65;0.70;;;15.90;41.20;;;;;;5095354;28;20040;-76
2022/03/19 03:55:57;;;;;;;3.22;0.73;;;15.90;41.20;;;;;;5095544;28;20047;-76
2022/03/19 03:58:23;;;;;;;1.77;0.52;;;15.90;41.20;;;;;;5095630;28;20050;-76
2022/03/19 04:00:51;;;;;;;3.08;0.80;;;15.90;41.20;;;;;;5113677;28;20036;-76
2022/03/19 04:03:17;;;;;;;3.20;0.60;;;15.90;41.20;;;;;;5095280;28;20543;-76
2022/03/19 04:05:42;;;;;;;2.83;0.55;;;15.80;41.20;;;;;;5095285;28;20035;-76
2022/03/19 04:08:08;;;;;;;3.67;0.80;;;15.80;41.20;;;;;;5094833;28;20070;-76
2022/03/19 04:10:34;;;;;;;3.90;0.77;;;15.80;41.20;;;;;;5094756;28;20040;-76
2022/03/19 04:13:03;;;;;;;2.72;0.60;;;15.80;41.10;;;;;;5094880;28;20054;-76
2022/03/19 04:15:29;;;;;;;2.53;0.43;;;15.80;41.10;;;;;;5095580;28;20082;-76
2022/03/19 04:17:55;;;;;;;2.30;0.40;;;15.80;41.10;;;;;;5095521;28;20063;-76
2022/03/19 04:20:22;;;;;;;4.88;0.93;;;15.80;41.20;;;;;;5113182;28;20510;-76
2022/03/19 04:22:48;;;;;;;2.47;0.50;;;15.80;41.10;;;;;;5094775;28;20512;-76
2022/03/19 04:25:17;;;;;;;1.60;0.40;;;15.80;41.10;;;;;;5094932;28;20120;-76
2022/03/19 04:27:45;;;;;;;4.60;0.88;;;15.80;41.10;;;;;;5112623;28;20100;-76
2022/03/19 04:30:12;;;;;;;2.65;0.85;;;15.70;41.00;;;;;;5094254;28;20047;-76
2022/03/19 04:38:09;;;;;;;3.42;0.77;;;15.70;41.00;;;;;;5087144;28;20048;-77
2022/03/19 04:40:36;;;;;;;3.05;0.73;;;15.70;41.00;;;;;;5087166;28;20098;-77
2022/03/19 04:43:02;;;;;;;1.98;0.60;;;15.70;41.00;;;;;;5088348;28;20094;-77
2022/03/19 04:45:28;;;;;;;3.47;1.00;;;15.70;41.00;;;;;;5087561;28;20119;-77
2022/03/19 04:47:54;;;;;;;2.15;0.43;;;15.70;41.00;;;;;;5086497;28;20120;-77
2022/03/19 04:50:20;;;;;;;4.28;0.82;;;15.70;40.90;;;;;;5086537;28;20476;-77
2022/03/19 04:52:47;;;;;;;3.58;0.50;;;15.60;40.90;;;;;;5087135;28;20032;-77
2022/03/19 04:55:13;;;;;;;3.90;0.98;;;15.70;40.90;;;;;;5086955;28;20051;-77
2022/03/19 04:57:39;;;;;;;2.97;0.55;;;15.60;40.80;;;;;;5087632;28;20044;-77
2022/03/19 05:00:07;;;;;;;2.65;0.55;;;15.60;40.80;;;;;;5086789;28;20040;-77
2022/03/19 05:02:33;;;;;;;3.63;0.65;;;15.70;40.80;;;;;;5087140;28;20047;-77
2022/03/19 05:05:00;;;;;;;2.80;0.70;;;15.70;40.80;;;;;;5087470;28;20037;-77
2022/03/19 05:07:27;;;;;;;4.45;1.00;;;15.70;40.80;;;;;;5087287;28;20489;-77
2022/03/19 05:12:43;;;;;;;2.50;0.60;;;15.60;40.70;;;;;;5086225;28;20053;-77
2022/03/19 05:15:14;;;;;;;4.55;0.80;;;15.60;40.80;;;;;;5086808;28;20041;-77
2022/03/19 05:17:40;;;;;;;;;;;15.60;40.70;;;;;;5087752;28;20032;-77
2022/03/19 05:20:06;;;;;;;5.93;0.82;;;15.60;40.80;;;;;;5086680;28;19982;-76
2022/03/19 05:22:35;;;;;;;3.55;1.00;;;15.60;40.70;;;;;;5088351;28;20081;-77
2022/03/19 05:25:01;;;;;;;2.35;0.93;;;15.60;40.80;;;;;;5087069;28;20492;-77
2022/03/19 05:27:27;;;;;;;3.35;0.70;;;15.60;40.70;;;;;;5087942;28;20041;-76
2022/03/19 05:29:53;;;;;;;1.90;0.93;;;15.50;40.70;;;;;;5086887;28;20050;-77
2022/03/19 05:32:20;;;;;;;4.93;0.90;;;15.60;40.70;;;;;;5086149;28;20028;-77
2022/03/19 05:34:46;;;;;;;2.42;0.80;;;15.60;40.70;;;;;;5087306;28;20411;-76
2022/03/19 05:37:13;;;;;;;2.58;0.60;;;15.60;40.70;;;;;;5086514;28;20101;-77
2022/03/19 05:39:39;;;;;;;3.88;0.85;;;15.50;40.70;;;;;;5086491;28;20146;-77
2022/03/19 05:42:06;;;;;;;2.35;0.70;;;15.50;40.70;;;;;;5086484;28;20051;-77
2022/03/19 05:44:34;;;;;;;3.42;0.77;;;15.50;40.60;;;;;;5086680;28;20036;-77
2022/03/19 05:47:00;;;;;;;3.15;0.70;;;15.50;40.60;;;;;;5072809;28;20369;-77
2022/03/19 05:49:27;;;;;;;3.10;0.80;;;15.50;40.60;;;;;;5072706;28;20434;-77
2022/03/19 05:51:54;;;;;;;3.80;0.60;;;15.50;40.60;;;;;;5072836;28;20114;-77
2022/03/19 05:54:20;;;;;;;3.63;0.98;;;15.50;40.60;;;;;;5073697;28;20037;-77
2022/03/19 05:56:49;;;;;;;3.50;0.82;;;15.50;40.60;;;;;;5074061;28;20459;-77
2022/03/19 05:59:15;;;;;;;4.07;0.68;;;15.50;40.60;;;;;;5073983;28;20025;-77
2022/03/19 06:01:43;;;;;;;2.42;0.50;;;15.50;40.60;;;;;;5073834;28;20396;-77
2022/03/19 06:04:09;;;;;;;3.28;0.68;;;15.40;40.50;;;;;;5074090;28;20093;-77
2022/03/19 06:06:35;;;;;;;3.53;0.63;;;15.50;40.50;;;;;;5072981;28;20463;-77
2022/03/19 06:09:02;;;;;;;2.90;0.70;;;15.50;40.50;;;;;;5072837;28;20059;-77
2022/03/19 06:11:27;;;;;;;3.90;0.65;;;15.50;40.40;;;;;;5073490;28;20040;-76
2022/03/19 06:13:53;;;;;;;3.30;0.60;;;15.50;40.40;;;;;;5071970;28;20098;-76
2022/03/19 06:16:19;;;;;;;3.47;0.63;;;15.50;40.40;;;;;;5072359;28;20041;-77
2022/03/19 06:18:47;;;;;;;3.78;0.50;;;15.40;40.30;;;;;;5072619;28;20040;-76
2022/03/19 06:21:13;;;;;;;5.35;0.90;;;15.50;41.10;;;;;;5073716;28;20037;-76
2022/03/19 06:23:39;;;;;;;6.38;1.17;;;15.40;40.30;;;;;;5072378;28;20071;-77
2022/03/19 06:26:04;;;;;;;3.30;0.70;;;15.50;40.40;;;;;;5072521;28;20427;-77
2022/03/19 06:28:31;;;;;;;3.17;0.60;;;15.40;40.30;;;;;;5071988;28;20040;-76
2022/03/19 06:30:57;;;;;;;3.83;0.68;;;15.40;40.30;;;;;;5071894;28;20048;-76
2022/03/19 06:33:23;;;;;;;3.33;0.95;;;15.40;40.30;;;;;;5071321;28;20048;-76
2022/03/19 06:38:34;;;;;;;2.03;0.60;;;15.40;40.30;;;;;;5072028;28;20466;-76
2022/03/19 06:40:59;;;;;;;3.00;0.80;;;15.40;40.30;;;;;;5071321;28;20044;-77
2022/03/19 06:43:26;;;;;;;2.20;0.68;;;15.40;40.30;;;;;;5071209;28;20074;-76
2022/03/19 06:45:54;;;;;;;4.10;0.95;;;15.30;40.30;;;;;;5071780;28;20173;-77
2022/03/19 06:48:21;;;;;;;2.55;0.85;;;15.40;40.30;;;;;;5071122;28;20044;-77
2022/03/19 06:50:46;;;;;;;3.90;0.93;;;15.40;40.40;;;;;;5071334;28;20437;-77
2022/03/19 06:53:12;;;;;;;3.25;0.73;;;15.30;40.30;;;;;;5070798;28;20040;-76
2022/03/19 06:55:37;;;;;;;4.65;0.60;;;15.30;40.40;;;;;;5071453;28;20079;-77
2022/03/19 06:58:03;;;;;;;5.40;0.73;;;15.40;40.50;;;;;;5070415;28;20059;-77
2022/03/19 07:00:29;;;;;;;2.17;0.55;;;15.30;40.40;;;;;;5071903;28;20115;-76
2022/03/19 07:02:55;;;;;;;3.17;0.90;;;15.30;40.50;;;;;;5071842;28;20781;-76
2022/03/19 07:05:23;;;;;;;3.92;0.55;;;15.30;40.70;;;;;;5070736;28;20071;-71
2022/03/19 07:07:49;;;;;;;3.55;0.82;;;15.30;40.70;;;;;;5071658;28;20064;-70
2022/03/19 07:10:15;;;;;;;4.22;0.70;;;15.30;40.70;;;;;;5068826;28;20044;-76
2022/03/19 07:12:43;;;;;;;4.38;0.90;;;15.30;41.00;;;;;;5070303;28;20041;-80
2022/03/19 07:15:11;;;;;;;5.32;0.80;;;15.30;41.30;;;;;;5068593;28;20043;-80
2022/03/19 07:17:37;;;;;;;3.17;0.70;;;15.30;41.50;;;;;;5069679;28;20049;-72
2022/03/19 07:20:03;;;;;;;4.40;0.77;;;15.40;41.60;;;;;;5069892;28;20115;-82
2022/03/19 07:22:28;;;;;;;36.15;4.85;;;15.60;41.60;;;;;;5067949;28;20037;-79
2022/03/19 07:24:54;;;;;;;6.05;0.98;;;15.80;41.60;;;;;;5069203;28;20049;-82
2022/03/19 07:27:19;;;;;;;7.65;0.88;;;16.10;41.20;;;;;;5069395;28;20515;-81
2022/03/19 07:29:45;;;;;;;8.63;0.80;;;16.80;40.30;;;;;;5070016;28;20043;-81
2022/03/19 07:32:11;;;;;;;7.55;0.75;;;17.60;38.80;;;;;;5069192;28;20036;-78
2022/03/19 07:34:39;;;;;;;6.05;0.70;;;18.50;37.60;;;;;;5069711;28;20218;-83
2022/03/19 07:37:05;;;;;;;8.70;1.02;;;19.10;36.50;;;;;;5069187;28;20063;-82
2022/03/19 07:39:30;;;;;;;7.50;1.35;;;19.60;35.60;;;;;;5069587;28;20024;-69
2022/03/19 07:41:56;;;;;;;7.20;1.25;;;20.20;34.70;;;;;;5069060;28;20459;-71
2022/03/19 07:44:22;;;;;;;7.18;1.35;;;20.70;34.00;;;;;;5068953;28;20075;-74
2022/03/19 07:46:47;;;;;;;16.65;2.42;;;21.00;33.30;;;;;;5068437;28;20056;-71
2022/03/19 07:49:13;;;;;;;6.47;0.95;;;21.30;32.90;;;;;;5070413;28;20399;-71
2022/03/19 07:51:39;;;;;;;3.70;0.98;;;21.50;32.40;;;;;;5068714;28;20491;-70
2022/03/19 07:54:05;;;;;;;5.75;1.10;;;21.70;32.10;;;;;;5070200;28;20044;-73
2022/03/19 07:56:30;;;;;;;4.75;1.13;;;21.80;31.90;;;;;;5069554;28;20040;-73
2022/03/19 07:58:56;;;;;;;6.88;0.95;;;21.90;31.90;;;;;;5068736;28;20086;-82
2022/03/19 08:01:21;;;;;;;5.05;1.00;;;22.00;31.70;;;;;;5069240;28;20115;-80
2022/03/19 08:03:48;;;;;;;37.35;4.53;;;22.10;31.50;;;;;;5069258;28;20098;-82
2022/03/19 08:06:16;;;;;;;7.32;0.98;;;22.10;31.50;;;;;;5067794;28;20052;-80
2022/03/19 08:08:42;;;;;;;4.60;1.02;;;22.10;31.30;;;;;;5067443;28;20049;-80
2022/03/19 08:11:08;;;;;;;5.38;0.70;;;22.10;31.10;;;;;;5067583;28;20044;-78
2022/03/19 08:13:35;;;;;;;6.10;1.02;;;22.10;31.00;;;;;;5069013;28;20045;-80
2022/03/19 08:16:04;;;;;;;5.65;0.90;;;22.20;31.00;;;;;;5067315;28;20094;-81
2022/03/19 08:18:29;;;;;;;4.80;0.85;;;22.20;31.20;;;;;;5068511;28;20089;-82
2022/03/19 08:20:58;;;;;;;4.68;0.80;;;22.20;31.10;;;;;;5050597;28;20036;-79
2022/03/19 08:23:23;;;;;;;9.88;1.02;;;22.20;31.10;;;;;;5068621;28;20044;-78
2022/03/19 08:25:52;;;;;;;5.88;0.93;;;22.20;31.00;;;;;;5069589;28;20032;-77
2022/03/19 08:28:18;;;;;;;3.75;0.80;;;22.20;31.00;;;;;;5068017;28;20094;-79
2022/03/19 08:30:43;;;;;;;4.72;0.68;;;22.20;30.80;;;;;;5081341;28;20047;-80
2022/03/19 08:33:09;;;;;;;3.60;0.82;;;22.20;30.50;;;;;;5068133;28;20040;-80
2022/03/19 08:35:35;;;;;;;4.75;0.73;;;22.20;30.50;;;;;;5069232;28;20438;-84
2022/03/19 08:40:46;;;;;;;3.42;0.45;;;22.20;30.50;;;;;;5056396;28;20045;-87
2022/03/19 08:43:11;;;;;;;4.63;0.50;;;22.20;30.30;;;;;;5068089;28;20036;-85
2022/03/19 08:45:37;;;;;;;4.70;0.65;;;22.20;30.30;;;;;;5069197;28;20040;-79
2022/03/19 08:48:03;;;;;;;6.70;1.52;;;22.10;30.60;;;;;;5067036;28;20040;-70
2022/03/19 08:50:29;;;;;;;5.50;0.55;;;22.10;31.00;;;;;;5067027;28;20037;-77
2022/03/19 08:52:55;;;;;;;8.52;0.68;;;22.10;31.00;;;;;;5067412;28;20043;-83
2022/03/19 08:55:20;;;;;;;2.95;0.63;;;22.00;31.20;;;;;;5068720;28;20040;-78
2022/03/19 08:57:46;;;;;;;3.50;0.60;;;22.00;31.40;;;;;;5068805;28;20033;-84
2022/03/19 09:00:13;;;;;;;3.75;0.50;;;21.90;31.60;;;;;;5068970;28;20392;-81
2022/03/19 09:02:42;;;;;;;5.88;0.73;;;21.80;31.80;;;;;;5068557;28;20103;-85
2022/03/19 09:05:12;;;;;;;3.70;0.63;;;21.80;31.90;;;;;;5067976;28;20049;-80
2022/03/19 09:07:37;;;;;;;3.28;0.77;;;21.70;32.00;;;;;;5054824;28;20070;-78
2022/03/19 09:10:04;;;;;;;5.95;0.88;;;21.60;32.30;;;;;;5069257;28;20044;-75
2022/03/19 09:12:29;;;;;;;4.75;0.45;;;21.50;32.30;;;;;;5068413;28;20055;-75
2022/03/19 09:14:58;;;;;;;5.80;0.50;;;21.50;32.30;;;;;;5069561;28;20040;-75
2022/03/19 09:17:23;;;;;;;3.30;0.60;;;21.40;32.30;;;;;;5086899;28;20051;-75
2022/03/19 09:19:49;;;;;;;3.20;0.60;;;21.30;32.20;;;;;;5070486;28;20045;-75
2022/03/19 09:22:15;;;;;;;4.18;0.52;;;21.20;32.30;;;;;;5073193;28;20040;-75
2022/03/19 09:24:41;;;;;;;5.43;1.15;;;21.20;32.30;;;;;;5074609;28;20051;-75
2022/03/19 09:27:07;;;;;;;4.20;0.65;;;21.10;32.30;;;;;;5073838;28;20053;-76
2022/03/19 09:29:33;;;;;;;2.63;0.45;;;21.00;32.40;;;;;;5073057;28;20041;-75
2022/03/19 09:31:59;;;;;;;4.60;0.70;;;20.90;32.40;;;;;;5073262;28;20044;-76
2022/03/19 09:34:24;;;;;;;5.07;0.70;;;20.80;32.50;;;;;;5074046;28;20091;-75
2022/03/19 09:36:50;;;;;;;3.80;0.40;;;20.70;32.50;;;;;;5073108;28;20048;-77
2022/03/19 09:39:16;;;;;;;2.95;0.70;;;20.50;32.60;;;;;;5073569;28;20036;-74
2022/03/19 09:41:43;;;;;;;2.97;0.57;;;20.40;32.80;;;;;;5073424;28;20040;-75
2022/03/19 09:44:12;;;;;;;2.05;0.60;;;20.20;32.80;;;;;;5089936;28;20075;-78
2022/03/19 09:46:38;;;;;;;3.25;0.43;;;20.10;32.90;;;;;;5072964;28;20047;-74
2022/03/19 09:49:07;;;;;;;2.92;0.82;;;20.00;33.10;;;;;;5072859;28;20087;-77
2022/03/19 09:51:38;;;;;;;5.80;0.73;;;19.80;33.10;;;;;;5074322;28;20404;-75
2022/03/19 09:54:03;;;;;;;1.92;0.55;;;19.70;32.90;;;;;;5072715;28;20044;-75
2022/03/19 09:56:31;;;;;;;3.03;0.40;;;19.40;33.10;;;;;;5072551;28;20616;-75
2022/03/19 09:58:56;;;;;;;4.95;0.77;;;19.30;33.20;;;;;;5073072;28;20115;-75
2022/03/19 10:01:22;;;;;;;4.68;0.88;;;19.20;33.50;;;;;;5072683;28;20131;-74
2022/03/19 10:03:50;;;;;;;2.13;0.50;;;19.10;33.70;;;;;;5072094;28;20048;-75
2022/03/19 10:09:04;;;;;;;4.28;0.57;;;18.90;33.90;;;;;;5072220;28;20049;-77
2022/03/19 10:11:35;;;;;;;3.58;0.57;;;18.90;34.00;;;;;;5073429;28;20043;-75
2022/03/19 10:14:06;;;;;;;3.25;0.50;;;18.80;34.00;;;;;;5071714;28;20040;-75
2022/03/19 10:16:35;;;;;;;3.72;0.50;;;18.80;34.10;;;;;;5088765;28;20044;-74
2022/03/19 10:19:03;;;;;;;4.13;0.80;;;18.70;34.00;;;;;;5073402;28;20037;-74
2022/03/19 10:21:34;;;;;;;3.85;0.60;;;18.70;34.10;;;;;;5073558;28;20400;-74
2022/03/19 10:24:01;;;;;;;4.13;0.60;;;18.70;34.10;;;;;;5071906;28;20090;-75
2022/03/19 10:26:29;;;;;;;2.88;0.60;;;18.70;34.20;;;;;;5071672;28;20037;-75
2022/03/19 10:28:57;;;;;;;3.35;0.40;;;18.70;34.20;;;;;;5072377;28;20135;-74
2022/03/19 10:31:47;;;;;;;4.10;0.75;;;18.70;34.20;;;;;;5071994;28;20373;-77
2022/03/19 10:34:13;;;;;;;3.87;0.40;;;18.70;34.20;;;;;;5071542;28;20123;-74
2022/03/19 10:36:43;;;;;;;3.22;0.40;;;18.70;34.10;;;;;;5072949;28;20091;-77
2022/03/19 10:39:22;;;;;;;2.92;0.40;;;18.70;34.20;;;;;;5073820;28;20087;-77
2022/03/19 10:41:49;;;;;;;3.20;0.70;;;18.70;34.00;;;;;;5071850;28;20040;-74
2022/03/19 10:44:17;;;;;;;2.05;0.35;;;18.70;33.70;;;;;;5071635;28;20063;-77
2022/03/19 10:46:52;;;;;;;2.22;0.65;;;18.70;33.80;;;;;;5072556;28;20044;-74
2022/03/19 10:49:20;;;;;;;2.55;0.40;;;18.60;33.50;;;;;;5071629;28;20412;-77
2022/03/19 10:51:48;;;;;;;3.85;0.40;;;18.60;33.40;;;;;;5071177;28;20037;-77
2022/03/19 10:54:15;;;;;;;2.78;0.40;;;18.60;33.40;;;;;;5070584;28;20078;-76
2022/03/19 10:56:43;;;;;;;4.55;0.52;;;18.60;33.10;;;;;;5070795;28;20045;-77
2022/03/19 10:59:09;;;;;;;2.58;0.60;;;18.60;33.20;;;;;;5071869;28;20543;-74
2022/03/19 11:01:36;;;;;;;3.15;0.32;;;18.50;33.20;;;;;;5070238;28;20153;-77
2022/03/19 11:04:04;;;;;;;4.25;0.60;;;18.50;33.20;;;;;;5071757;28;20543;-77
2022/03/19 11:06:36;;;;;;;4.18;0.43;;;18.50;33.20;;;;;;5072828;28;20508;-77
2022/03/19 11:09:06;;;;;;;3.05;0.40;;;18.50;33.10;;;;;;5071942;28;20379;-78
2022/03/19 11:11:40;;;;;;;2.93;0.40;;;18.50;33.20;;;;;;5071602;28;20041;-77
2022/03/19 11:14:08;;;;;;;4.18;0.40;;;18.50;33.30;;;;;;5071385;28;20310;-77
2022/03/19 11:16:37;;;;;;;3.50;0.30;;;18.40;33.20;;;;;;5071383;28;20044;-77
2022/03/19 11:19:04;;;;;;;2.22;0.32;;;18.40;33.20;;;;;;5071824;28;20048;-75
2022/03/19 11:21:32;;;;;;;3.60;0.40;;;18.40;33.30;;;;;;5072486;28;20400;-76
2022/03/19 11:24:20;;;;;;;1.98;0.30;;;18.30;33.50;;;;;;5071539;28;20048;-76
2022/03/19 11:26:47;;;;;;;2.53;0.40;;;18.30;33.50;;;;;;5071139;28;20526;-77
2022/03/19 11:29:13;;;;;;;3.22;0.38;;;18.20;33.60;;;;;;5071609;28;20051;-77
2022/03/19 11:31:38;;;;;;;2.47;0.30;;;18.10;33.30;;;;;;5072112;28;20040;-78
2022/03/19 11:34:19;;;;;;;2.70;0.20;;;18.10;33.10;;;;;;5070696;28;20400;-77
2022/03/19 11:37:02;;;;;;;1.90;0.40;;;18.00;32.70;;;;;;5070911;28;20086;-77
2022/03/19 11:39:28;;;;;;;2.00;0.63;;;18.00;32.70;;;;;;5071233;28;20049;-77
2022/03/19 11:41:54;;;;;;;1.90;0.30;;;17.90;32.70;;;;;;5070216;28;20113;-77
2022/03/19 11:44:24;;;;;;;1.55;0.30;;;17.90;33.60;;;;;;5070339;28;20613;-77
2022/03/19 11:55:10;;;;;;;2.88;0.30;;;17.80;33.10;;;;;;5129493;27;20877;-75
2022/03/19 11:57:57;;;;;;;3.35;0.65;;;17.70;33.70;;;;;;5128537;28;20122;-77
2022/03/19 12:00:26;;;;;;;1.65;0.20;;;17.70;33.90;;;;;;5127025;28;20039;-73
2022/03/19 12:03:14;;;;;;;1.73;0.20;;;17.70;34.00;;;;;;5127348;28;20453;-67
2022/03/19 12:05:45;;;;;;;2.70;0.40;;;17.70;34.30;;;;;;5126136;28;20039;-68
2022/03/19 12:13:38;;;;;;;2.75;0.63;;;17.70;35.60;;;;;;5126233;27;20432;-67
2022/03/19 12:16:06;;;;;;;4.07;0.40;;;17.70;35.70;;;;;;5126698;28;20046;-66
2022/03/19 12:21:24;;;;;;;3.35;0.22;;;17.70;35.30;;;;;;5151301;27;1161869;-66
2022/03/19 12:24:17;;;;;;;2.90;0.30;;;17.70;35.30;;;;;;5151153;27;20046;-68
2022/03/19 12:26:46;;;;;;;2.65;0.20;;;17.80;36.00;;;;;;5155326;27;20041;-68
2022/03/19 12:29:13;;;;;;;1.98;0.40;;;17.80;35.80;;;;;;5172431;27;20125;-64
2022/03/19 12:31:45;;;;;;;1.92;0.30;;;17.80;36.00;;;;;;5154628;27;20466;-69
2022/03/19 12:34:29;;;;;;;3.15;0.40;;;17.80;36.00;;;;;;5148473;27;20061;-66
2022/03/19 12:37:00;;;;;;;2.35;0.20;;;17.90;36.00;;;;;;5150439;27;20035;-72
2022/03/19 12:39:27;;;;;;;5.47;0.32;;;17.90;35.90;;;;;;5148552;27;20043;-73
2022/03/19 12:41:52;;;;;;;8.18;0.30;;;17.90;35.90;;;;;;5149067;27;20094;-72
2022/03/19 12:49:38;;;;;;;3.50;0.28;;;17.90;36.20;;;;;;5088465;27;20924;-72
2022/03/19 12:52:07;;;;;;;15.85;0.88;;;17.90;36.20;;;;;;5087790;28;20056;-67
2022/03/19 12:54:33;;;;;;;8.43;0.90;;;17.90;36.20;;;;;;5087649;28;20131;-69
2022/03/19 12:57:23;;;;;;;8.57;0.50;;;18.00;37.10;;;;;;5096944;28;20115;-73
2022/03/19 12:59:57;;;;;;;12.70;0.63;;;18.00;36.40;;;;;;5095328;28;20423;-72
2022/03/19 13:02:25;;;;;;;4.22;0.50;;;18.00;36.60;;;;;;5095500;28;20072;-72
2022/03/19 13:04:51;;;;;;;7.53;0.43;;;18.00;36.40;;;;;;5087653;28;20080;-71
2022/03/19 13:07:18;;;;;;;9.82;0.60;;;18.00;36.50;;;;;;5088703;28;20104;-71
2022/03/19 13:09:45;;;;;;;4.50;0.82;;;18.00;36.70;;;;;;5093002;28;20036;-73
2022/03/19 13:12:25;;;;;;;4.10;0.40;;;18.00;36.90;;;;;;5096406;28;20036;-73
2022/03/19 13:14:54;;;;;;;3.42;0.35;;;18.00;36.90;;;;;;5094421;28;20041;-69
2022/03/19 13:17:21;;;;;;;2.33;0.45;;;18.00;36.80;;;;;;5096601;28;20388;-73
2022/03/19 13:19:50;;;;;;;2.90;0.32;;;18.10;36.80;;;;;;5098743;28;20115;-70
2022/03/19 13:22:19;;;;;;;2.42;0.40;;;18.00;36.30;;;;;;5083528;28;20366;-74
2022/03/19 13:24:47;;;;;;;4.40;0.35;;;18.00;36.10;;;;;;5083087;28;20033;-74
2022/03/19 13:27:14;;;;;;;1.85;0.20;;;18.00;36.00;;;;;;5105665;28;20042;-69
2022/03/19 13:29:43;;;;;;;5.53;0.40;;;18.00;35.80;;;;;;5109049;28;20039;-72